createdAt,value
2018-02-15T00:00:22.640Z,65.28
2018-02-15T00:01:22.932Z,65.37
2018-02-15T00:02:22.934Z,65.75
2018-02-15T00:03:22.945Z,65.28
2018-02-15T00:04:22.672Z,65.19
2018-02-15T00:05:22.961Z,65.56
2018-02-15T00:06:22.689Z,65.75
2018-02-15T00:07:22.980Z,65.66
2018-02-15T00:08:23.011Z,65.84
2018-02-15T00:09:23.001Z,65.84
2018-02-15T00:10:23.012Z,65.84
2018-02-15T00:11:22.737Z,65.66
2018-02-15T00:12:23.035Z,65.47
2018-02-15T00:13:22.760Z,65.94
2018-02-15T00:14:22.764Z,66.32
2018-02-15T00:15:23.057Z,66.41
2018-02-15T00:16:23.064Z,66.41
2018-02-15T00:17:23.099Z,66.13
2018-02-15T00:18:22.802Z,66.41
2018-02-15T00:19:22.811Z,66.13
2018-02-15T00:20:22.818Z,66.51
2018-02-15T00:21:23.159Z,65.84
2018-02-15T00:22:23.119Z,66.03
2018-02-15T00:23:23.127Z,65.66
2018-02-15T00:24:22.866Z,65.84
2018-02-15T00:25:23.149Z,65.66
2018-02-15T00:26:22.876Z,65.84
2018-02-15T00:27:23.167Z,65.47
2018-02-15T00:28:23.176Z,65.66
2018-02-15T00:29:22.905Z,66.03
2018-02-15T00:30:23.196Z,65.75
2018-02-15T00:31:22.929Z,66.03
2018-02-15T00:32:23.214Z,66.51
2018-02-15T00:33:22.942Z,66.41
2018-02-15T00:34:22.952Z,66.03
2018-02-15T00:35:23.244Z,66.13
2018-02-15T00:36:23.256Z,66.13
2018-02-15T00:37:22.986Z,66.32
2018-02-15T00:38:22.989Z,66.41
2018-02-15T00:39:23.284Z,66.32
2018-02-15T00:40:23.289Z,66.03
2018-02-15T00:41:23.018Z,66.13
2018-02-15T00:42:23.311Z,65.84
2018-02-15T00:43:23.326Z,66.13
2018-02-15T00:44:23.054Z,65.94
2018-02-15T00:45:23.053Z,66.13
2018-02-15T00:46:23.063Z,66.22
2018-02-15T00:47:23.361Z,66.22
2018-02-15T00:48:23.083Z,66.22
2018-02-15T00:49:23.388Z,66.22
2018-02-15T00:50:23.380Z,66.32
2018-02-15T00:51:23.110Z,65.94
2018-02-15T00:52:23.116Z,66.32
2018-02-15T00:53:23.133Z,66.03
2018-02-15T00:54:23.416Z,66.22
2018-02-15T00:55:23.152Z,66.03
2018-02-15T00:56:23.159Z,66.03
2018-02-15T00:57:23.446Z,66.03
2018-02-15T00:58:23.173Z,66.03
2018-02-15T00:59:23.467Z,66.22
2018-02-15T01:00:23.201Z,66.03
2018-02-15T01:01:23.482Z,66.7
2018-02-15T01:02:23.209Z,66.13
2018-02-15T01:03:23.218Z,66.03
2018-02-15T01:04:23.509Z,66.13
2018-02-15T01:05:23.240Z,66.13
2018-02-15T01:06:23.578Z,66.03
2018-02-15T01:07:23.263Z,66.03
2018-02-15T01:08:23.546Z,66.8
2018-02-15T01:09:23.559Z,66.13
2018-02-15T01:10:23.567Z,66.22
2018-02-15T01:11:23.295Z,66.22
2018-02-15T01:12:23.586Z,66.22
2018-02-15T01:13:23.594Z,66.22
2018-02-15T01:14:23.603Z,66.22
2018-02-15T01:15:23.335Z,65.94
2018-02-15T01:16:23.624Z,66.32
2018-02-15T01:17:23.633Z,65.94
2018-02-15T01:18:23.357Z,66.13
2018-02-15T01:19:23.653Z,66.03
2018-02-15T01:20:23.665Z,66.13
2018-02-15T01:21:23.385Z,66.13
2018-02-15T01:22:23.672Z,66.41
2018-02-15T01:23:23.402Z,66.51
2018-02-15T01:24:23.416Z,66.22
2018-02-15T01:25:23.426Z,66.41
2018-02-15T01:26:23.763Z,66.41
2018-02-15T01:27:23.720Z,66.41
2018-02-15T01:28:23.731Z,66.51
2018-02-15T01:29:23.461Z,66.13
2018-02-15T01:30:23.468Z,66.41
2018-02-15T01:31:23.534Z,66.41
2018-02-15T01:32:23.766Z,66.7
2018-02-15T01:33:23.772Z,66.89
2018-02-15T01:34:23.509Z,66.99
2018-02-15T01:35:23.513Z,67.18
2018-02-15T01:36:23.805Z,67.18
2018-02-15T01:37:23.855Z,66.7
2018-02-15T01:38:23.539Z,66.89
2018-02-15T01:39:24.033Z,66.89
2018-02-15T01:40:23.563Z,66.99
2018-02-15T01:41:23.567Z,66.99
2018-02-15T01:42:23.587Z,66.89
2018-02-15T01:43:23.584Z,66.99
2018-02-15T01:44:23.876Z,66.7
2018-02-15T01:45:23.885Z,66.89
2018-02-15T01:46:23.893Z,66.89
2018-02-15T01:47:23.621Z,66.99
2018-02-15T01:48:23.916Z,66.32
2018-02-15T01:49:23.921Z,66.51
2018-02-15T01:50:23.929Z,66.32
2018-02-15T01:51:23.656Z,66.8
2018-02-15T01:52:23.664Z,66.7
2018-02-15T01:53:23.675Z,66.6
2018-02-15T01:54:23.687Z,66.41
2018-02-15T01:55:23.976Z,66.6
2018-02-15T01:56:23.986Z,66.6
2018-02-15T01:57:23.710Z,66.51
2018-02-15T01:58:24.000Z,66.51
2018-02-15T01:59:23.729Z,66.32
2018-02-15T02:00:24.018Z,66.22
2018-02-15T02:01:23.748Z,66.7
2018-02-15T02:02:24.038Z,66.22
2018-02-15T02:03:24.044Z,66.6
2018-02-15T02:04:24.060Z,66.67
2018-02-15T02:05:24.064Z,66.57
2018-02-15T02:06:23.798Z,66.51
2018-02-15T02:07:23.802Z,66.67
2018-02-15T02:08:24.119Z,66.22
2018-02-15T02:09:23.818Z,66.67
2018-02-15T02:10:24.119Z,66.32
2018-02-15T02:11:23.839Z,66.41
2018-02-15T02:12:23.845Z,66.57
2018-02-15T02:13:23.860Z,66.57
2018-02-15T02:14:24.145Z,66.8
2018-02-15T02:15:24.153Z,66.41
2018-02-15T02:16:24.213Z,66.86
2018-02-15T02:17:23.890Z,66.76
2018-02-15T02:18:23.908Z,66.7
2018-02-15T02:19:23.906Z,66.28
2018-02-15T02:20:23.917Z,66.19
2018-02-15T02:21:23.975Z,66.47
2018-02-15T02:22:24.215Z,66.57
2018-02-15T02:23:23.943Z,66.57
2018-02-15T02:24:23.953Z,66.47
2018-02-15T02:25:23.961Z,66.67
2018-02-15T02:26:23.975Z,66.57
2018-02-15T02:27:23.980Z,66.09
2018-02-15T02:28:23.990Z,66.47
2018-02-15T02:29:23.996Z,66.95
2018-02-15T02:30:24.347Z,66.95
2018-02-15T02:31:24.306Z,66.51
2018-02-15T02:32:24.022Z,66.76
2018-02-15T02:33:24.319Z,66.67
2018-02-15T02:34:24.408Z,66.38
2018-02-15T02:35:24.058Z,66.19
2018-02-15T02:36:24.060Z,66.28
2018-02-15T02:37:24.355Z,66.57
2018-02-15T02:38:24.361Z,66.76
2018-02-15T02:39:24.088Z,66.57
2018-02-15T02:40:24.100Z,66.67
2018-02-15T02:41:24.391Z,66.57
2018-02-15T02:42:24.113Z,66.76
2018-02-15T02:43:24.122Z,66.57
2018-02-15T02:44:24.413Z,66.95
2018-02-15T02:45:24.425Z,66.67
2018-02-15T02:46:24.438Z,67.14
2018-02-15T02:47:24.156Z,67.14
2018-02-15T02:48:24.171Z,66.76
2018-02-15T02:49:24.176Z,66.47
2018-02-15T02:50:24.183Z,66.86
2018-02-15T02:51:24.192Z,66.76
2018-02-15T02:52:24.504Z,67.14
2018-02-15T02:53:24.497Z,66.76
2018-02-15T02:54:24.507Z,66.38
2018-02-15T02:55:24.234Z,66.76
2018-02-15T02:56:24.535Z,66.95
2018-02-15T02:57:24.526Z,66.76
2018-02-15T02:58:24.543Z,66.38
2018-02-15T02:59:24.545Z,66.67
2018-02-15T03:00:24.273Z,66.57
2018-02-15T03:01:24.565Z,66.67
2018-02-15T03:02:24.589Z,66.38
2018-02-15T03:03:24.582Z,66.47
2018-02-15T03:04:24.610Z,67.05
2018-02-15T03:05:24.336Z,66.76
2018-02-15T03:06:24.333Z,66.47
2018-02-15T03:07:24.615Z,66.95
2018-02-15T03:08:24.627Z,66.47
2018-02-15T03:09:24.638Z,66.47
2018-02-15T03:10:24.358Z,66.47
2018-02-15T03:11:24.652Z,66.76
2018-02-15T03:12:24.533Z,66.76
2018-02-15T03:13:24.384Z,67.05
2018-02-15T03:14:24.395Z,66.95
2018-02-15T03:15:24.736Z,67.05
2018-02-15T03:16:24.416Z,67.43
2018-02-15T03:17:24.431Z,67.52
2018-02-15T03:18:24.429Z,67.52
2018-02-15T03:19:24.438Z,67.43
2018-02-15T03:20:24.727Z,67.43
2018-02-15T03:21:24.455Z,67.33
2018-02-15T03:22:24.669Z,67.33
2018-02-15T03:23:24.755Z,67.33
2018-02-15T03:24:24.489Z,67.24
2018-02-15T03:25:24.774Z,66.95
2018-02-15T03:26:24.504Z,67.24
2018-02-15T03:27:24.511Z,67.24
2018-02-15T03:28:24.519Z,67.14
2018-02-15T03:29:24.537Z,67.33
2018-02-15T03:30:24.825Z,66.95
2018-02-15T03:31:24.547Z,66.95
2018-02-15T03:32:24.554Z,67.43
2018-02-15T03:33:24.562Z,67.43
2018-02-15T03:34:24.863Z,67.43
2018-02-15T03:35:24.884Z,67.43
2018-02-15T03:36:24.590Z,67.24
2018-02-15T03:37:24.904Z,67.43
2018-02-15T03:38:24.899Z,66.95
2018-02-15T03:39:24.632Z,67.33
2018-02-15T03:40:24.623Z,67.14
2018-02-15T03:41:24.923Z,67.24
2018-02-15T03:42:24.640Z,67.24
2018-02-15T03:43:24.948Z,67.33
2018-02-15T03:44:24.657Z,67.24
2018-02-15T03:45:24.690Z,67.24
2018-02-15T03:46:24.693Z,67.24
2018-02-15T03:47:24.965Z,66.95
2018-02-15T03:48:24.691Z,67.43
2018-02-15T03:49:24.702Z,67.43
2018-02-15T03:50:24.991Z,67.43
2018-02-15T03:51:24.718Z,67.52
2018-02-15T03:52:25.005Z,67.52
2018-02-15T03:53:25.016Z,66.95
2018-02-15T03:54:25.033Z,67.43
2018-02-15T03:55:24.760Z,67.14
2018-02-15T03:56:25.293Z,67.33
2018-02-15T03:57:24.782Z,67.33
2018-02-15T03:58:25.060Z,67.24
2018-02-15T03:59:24.799Z,66.95
2018-02-15T04:00:24.794Z,67.14
2018-02-15T04:01:25.085Z,66.95
2018-02-15T04:02:24.818Z,67.05
2018-02-15T04:03:25.108Z,67.14
2018-02-15T04:04:25.112Z,67.43
2018-02-15T04:05:25.122Z,67.43
2018-02-15T04:06:24.856Z,67.43
2018-02-15T04:07:24.855Z,67.14
2018-02-15T04:08:25.145Z,67.43
2018-02-15T04:09:25.157Z,67.14
2018-02-15T04:10:25.164Z,67.33
2018-02-15T04:11:25.175Z,67.52
2018-02-15T04:12:25.048Z,67.52
2018-02-15T04:13:24.909Z,67.61
2018-02-15T04:14:24.918Z,67.43
2018-02-15T04:15:24.938Z,67.8
2018-02-15T04:16:25.216Z,67.43
2018-02-15T04:17:25.276Z,67.52
2018-02-15T04:18:25.241Z,67.71
2018-02-15T04:19:25.245Z,67.61
2018-02-15T04:20:25.249Z,67.8
2018-02-15T04:21:24.977Z,67.9
2018-02-15T04:22:24.985Z,67.9
2018-02-15T04:23:25.318Z,67.99
2018-02-15T04:24:25.003Z,67.61
2018-02-15T04:25:25.011Z,67.61
2018-02-15T04:26:25.021Z,67.61
2018-02-15T04:27:25.316Z,67.71
2018-02-15T04:28:25.044Z,67.61
2018-02-15T04:29:25.326Z,67.71
2018-02-15T04:30:25.054Z,67.8
2018-02-15T04:31:25.344Z,67.71
2018-02-15T04:32:25.407Z,67.71
2018-02-15T04:33:25.080Z,67.71
2018-02-15T04:34:25.400Z,67.9
2018-02-15T04:35:25.099Z,67.8
2018-02-15T04:36:25.386Z,67.71
2018-02-15T04:37:25.444Z,67.9
2018-02-15T04:38:25.407Z,67.71
2018-02-15T04:39:25.416Z,67.71
2018-02-15T04:40:25.422Z,67.61
2018-02-15T04:41:25.434Z,67.61
2018-02-15T04:42:25.441Z,67.61
2018-02-15T04:43:25.168Z,67.99
2018-02-15T04:44:25.457Z,67.8
2018-02-15T04:45:25.184Z,67.61
2018-02-15T04:46:25.475Z,67.43
2018-02-15T04:47:25.481Z,67.43
2018-02-15T04:48:25.494Z,67.61
2018-02-15T04:49:25.501Z,67.8
2018-02-15T04:50:25.510Z,67.99
2018-02-15T04:51:25.235Z,67.8
2018-02-15T04:52:25.530Z,67.99
2018-02-15T04:53:25.533Z,67.52
2018-02-15T04:54:25.539Z,67.99
2018-02-15T04:55:25.270Z,67.71
2018-02-15T04:56:25.283Z,68.08
2018-02-15T04:57:25.287Z,67.52
2018-02-15T04:58:25.576Z,67.61
2018-02-15T04:59:25.304Z,67.99
2018-02-15T05:00:25.602Z,67.52
2018-02-15T05:01:25.603Z,67.9
2018-02-15T05:02:25.331Z,67.99
2018-02-15T05:03:25.619Z,67.9
2018-02-15T05:04:25.637Z,67.9
2018-02-15T05:05:25.355Z,67.71
2018-02-15T05:06:25.648Z,67.8
2018-02-15T05:07:25.654Z,67.8
2018-02-15T05:08:25.663Z,67.8
2018-02-15T05:09:25.388Z,67.61
2018-02-15T05:10:25.683Z,67.71
2018-02-15T05:11:25.408Z,67.71
2018-02-15T05:12:25.414Z,67.61
2018-02-15T05:13:25.705Z,67.52
2018-02-15T05:14:25.432Z,67.61
2018-02-15T05:15:25.723Z,67.61
2018-02-15T05:16:25.741Z,67.71
2018-02-15T05:17:25.457Z,67.8
2018-02-15T05:18:25.780Z,67.61
2018-02-15T05:19:25.472Z,67.61
2018-02-15T05:20:25.812Z,67.71
2018-02-15T05:21:25.496Z,67.71
2018-02-15T05:22:25.784Z,67.71
2018-02-15T05:23:25.515Z,67.71
2018-02-15T05:24:25.525Z,67.61
2018-02-15T05:25:25.529Z,67.61
2018-02-15T05:26:25.819Z,67.71
2018-02-15T05:27:25.545Z,67.61
2018-02-15T05:28:25.837Z,67.61
2018-02-15T05:29:25.842Z,67.71
2018-02-15T05:30:25.850Z,67.99
2018-02-15T05:31:25.860Z,67.99
2018-02-15T05:32:25.871Z,67.9
2018-02-15T05:33:25.875Z,68.27
2018-02-15T05:34:25.898Z,67.99
2018-02-15T05:35:25.612Z,67.8
2018-02-15T05:36:25.912Z,68.08
2018-02-15T05:37:25.912Z,68.08
2018-02-15T05:38:25.919Z,67.71
2018-02-15T05:39:25.926Z,67.99
2018-02-15T05:40:25.654Z,68.27
2018-02-15T05:41:25.943Z,67.99
2018-02-15T05:42:25.671Z,67.71
2018-02-15T05:43:25.690Z,67.99
2018-02-15T05:44:25.696Z,68.37
2018-02-15T05:45:25.707Z,68.18
2018-02-15T05:46:25.994Z,68.08
2018-02-15T05:47:25.725Z,68.27
2018-02-15T05:48:25.725Z,68.18
2018-02-15T05:49:25.738Z,68.18
2018-02-15T05:50:26.024Z,68.18
2018-02-15T05:51:26.035Z,68.18
2018-02-15T05:52:26.039Z,68.18
2018-02-15T05:53:26.055Z,68.27
2018-02-15T05:54:26.060Z,68.18
2018-02-15T05:55:26.073Z,67.8
2018-02-15T05:56:26.073Z,68.18
2018-02-15T05:57:26.082Z,68.18
2018-02-15T05:58:25.813Z,68.08
2018-02-15T05:59:25.822Z,68.18
2018-02-15T06:00:26.107Z,68.18
2018-02-15T06:01:25.836Z,67.99
2018-02-15T06:02:26.136Z,67.99
2018-02-15T06:03:25.901Z,67.99
2018-02-15T06:04:26.142Z,68.27
2018-02-15T06:05:26.152Z,68.18
2018-02-15T06:06:26.267Z,67.71
2018-02-15T06:07:25.907Z,67.99
2018-02-15T06:08:25.913Z,67.9
2018-02-15T06:09:26.217Z,68.27
2018-02-15T06:10:26.218Z,68.56
2018-02-15T06:11:25.951Z,67.99
2018-02-15T06:12:26.262Z,67.99
2018-02-15T06:13:25.959Z,67.99
2018-02-15T06:14:26.254Z,67.71
2018-02-15T06:15:25.978Z,68.18
2018-02-15T06:16:26.273Z,68.46
2018-02-15T06:17:25.995Z,68.18
2018-02-15T06:18:26.016Z,68.18
2018-02-15T06:19:26.300Z,68.37
2018-02-15T06:20:26.308Z,68.18
2018-02-15T06:21:26.028Z,68.37
2018-02-15T06:22:26.040Z,68.27
2018-02-15T06:23:26.095Z,68.37
2018-02-15T06:24:26.346Z,68.46
2018-02-15T06:25:26.352Z,68.18
2018-02-15T06:26:26.361Z,68.27
2018-02-15T06:27:26.082Z,68.27
2018-02-15T06:28:26.373Z,68.18
2018-02-15T06:29:26.386Z,68.37
2018-02-15T06:30:26.390Z,68.37
2018-02-15T06:31:26.115Z,68.27
2018-02-15T06:32:26.409Z,68.46
2018-02-15T06:33:26.465Z,68.27
2018-02-15T06:34:26.755Z,68.46
2018-02-15T06:35:26.436Z,68.46
2018-02-15T06:36:26.155Z,67.99
2018-02-15T06:37:26.169Z,67.9
2018-02-15T06:38:26.514Z,68.46
2018-02-15T06:39:26.181Z,68.46
2018-02-15T06:40:26.475Z,67.99
2018-02-15T06:41:26.200Z,68.18
2018-02-15T06:42:26.209Z,68.18
2018-02-15T06:43:26.504Z,68.18
2018-02-15T06:44:26.225Z,68.18
2018-02-15T06:45:26.247Z,68.08
2018-02-15T06:46:26.534Z,67.99
2018-02-15T06:47:26.540Z,68.18
2018-02-15T06:48:26.261Z,68.27
2018-02-15T06:49:26.558Z,68.18
2018-02-15T06:50:26.565Z,67.99
2018-02-15T06:51:26.287Z,68.37
2018-02-15T06:52:26.583Z,68.46
2018-02-15T06:53:26.359Z,68.18
2018-02-15T06:54:26.314Z,67.99
2018-02-15T06:55:26.319Z,67.99
2018-02-15T06:56:26.330Z,67.99
2018-02-15T06:57:26.338Z,68.18
2018-02-15T06:58:26.637Z,68.18
2018-02-15T06:59:26.645Z,67.99
2018-02-15T07:00:26.366Z,68.46
2018-02-15T07:01:26.660Z,68.27
2018-02-15T07:02:26.385Z,68.31
2018-02-15T07:03:26.395Z,68.37
2018-02-15T07:04:26.421Z,67.99
2018-02-15T07:05:26.708Z,67.83
2018-02-15T07:06:26.706Z,68.12
2018-02-15T07:07:26.720Z,67.83
2018-02-15T07:08:26.441Z,68.21
2018-02-15T07:09:26.462Z,67.99
2018-02-15T07:10:26.747Z,67.93
2018-02-15T07:11:26.754Z,67.71
2018-02-15T07:12:26.469Z,67.93
2018-02-15T07:13:26.529Z,67.65
2018-02-15T07:14:26.489Z,67.36
2018-02-15T07:15:26.499Z,67.83
2018-02-15T07:16:26.502Z,67.74
2018-02-15T07:17:26.523Z,67.36
2018-02-15T07:18:26.522Z,67.27
2018-02-15T07:19:26.546Z,67.36
2018-02-15T07:20:26.553Z,67.27
2018-02-15T07:21:26.560Z,67.46
2018-02-15T07:22:26.855Z,67.46
2018-02-15T07:23:26.573Z,67.36
2018-02-15T07:24:26.865Z,67.46
2018-02-15T07:25:26.594Z,67.65
2018-02-15T07:26:26.891Z,67.65
2018-02-15T07:27:26.605Z,67.93
2018-02-15T07:28:26.627Z,67.93
2018-02-15T07:29:26.622Z,67.65
2018-02-15T07:30:26.629Z,67.93
2018-02-15T07:31:26.941Z,68.02
2018-02-15T07:32:26.933Z,67.93
2018-02-15T07:33:26.662Z,67.46
2018-02-15T07:34:26.666Z,67.46
2018-02-15T07:35:26.675Z,68.02
2018-02-15T07:36:26.716Z,67.93
2018-02-15T07:37:26.700Z,67.65
2018-02-15T07:38:26.701Z,67.55
2018-02-15T07:39:26.722Z,67.74
2018-02-15T07:40:26.718Z,67.74
2018-02-15T07:41:27.010Z,67.74
2018-02-15T07:42:26.731Z,67.65
2018-02-15T07:43:26.781Z,67.74
2018-02-15T07:44:27.666Z,67.93
2018-02-15T07:45:27.346Z,67.65
2018-02-15T07:46:26.953Z,67.55
2018-02-15T07:47:27.260Z,67.74
2018-02-15T07:48:26.941Z,67.83
2018-02-15T07:49:26.839Z,68.31
2018-02-15T07:50:27.099Z,68.02
2018-02-15T07:51:27.103Z,68.31
2018-02-15T07:52:26.824Z,68.02
2018-02-15T07:53:26.831Z,68.21
2018-02-15T07:54:27.130Z,68.12
2018-02-15T07:55:26.848Z,68.02
2018-02-15T07:56:26.857Z,68.12
2018-02-15T07:57:26.867Z,68.21
2018-02-15T07:58:26.897Z,68.21
2018-02-15T07:59:26.886Z,68.21
2018-02-15T08:00:26.903Z,68.02
2018-02-15T08:01:26.901Z,68.31
2018-02-15T08:02:26.911Z,68.21
2018-02-15T08:03:26.918Z,68.02
2018-02-15T08:04:27.231Z,67.65
2018-02-15T08:05:27.225Z,68.21
2018-02-15T08:06:26.946Z,68.12
2018-02-15T08:07:26.955Z,67.65
2018-02-15T08:08:26.965Z,67.83
2018-02-15T08:09:27.264Z,67.93
2018-02-15T08:10:27.269Z,67.65
2018-02-15T08:11:27.283Z,67.74
2018-02-15T08:12:27.286Z,67.74
2018-02-15T08:13:27.016Z,67.74
2018-02-15T08:14:27.307Z,67.65
2018-02-15T08:15:27.313Z,67.65
2018-02-15T08:16:27.323Z,67.83
2018-02-15T08:17:27.335Z,67.93
2018-02-15T08:18:27.054Z,67.83
2018-02-15T08:19:27.353Z,67.65
2018-02-15T08:20:27.081Z,67.68
2018-02-15T08:21:27.371Z,67.65
2018-02-15T08:22:27.091Z,67.83
2018-02-15T08:23:27.384Z,67.46
2018-02-15T08:24:27.110Z,67.3
2018-02-15T08:25:27.402Z,67.21
2018-02-15T08:26:27.130Z,67.3
2018-02-15T08:27:27.421Z,67.36
2018-02-15T08:28:27.144Z,67.4
2018-02-15T08:29:27.152Z,67.21
2018-02-15T08:30:27.164Z,67.21
2018-02-15T08:31:27.172Z,67.21
2018-02-15T08:32:27.470Z,67.02
2018-02-15T08:33:27.198Z,67.02
2018-02-15T08:34:27.201Z,66.83
2018-02-15T08:35:27.216Z,66.93
2018-02-15T08:36:27.509Z,67.02
2018-02-15T08:37:27.262Z,66.83
2018-02-15T08:38:27.530Z,66.64
2018-02-15T08:39:27.247Z,66.45
2018-02-15T08:40:27.546Z,66.93
2018-02-15T08:41:27.552Z,66.74
2018-02-15T08:42:27.564Z,66.54
2018-02-15T08:43:27.285Z,66.26
2018-02-15T08:44:27.295Z,66.64
2018-02-15T08:45:27.329Z,66.64
2018-02-15T08:46:27.605Z,65.97
2018-02-15T08:47:27.606Z,66.45
2018-02-15T08:48:27.331Z,65.31
2018-02-15T08:49:27.344Z,65.5
2018-02-15T08:50:27.350Z,65.5
2018-02-15T08:51:27.645Z,65.41
2018-02-15T08:52:27.368Z,65.31
2018-02-15T08:53:27.668Z,65.59
2018-02-15T08:54:27.390Z,64.84
2018-02-15T08:55:27.687Z,65.22
2018-02-15T08:56:27.406Z,65.41
2018-02-15T08:57:27.416Z,65.41
2018-02-15T08:58:27.711Z,65.5
2018-02-15T08:59:27.721Z,65.69
2018-02-15T09:00:27.736Z,65.41
2018-02-15T09:01:27.453Z,65.41
2018-02-15T09:02:27.753Z,65.41
2018-02-15T09:03:27.779Z,65.59
2018-02-15T09:04:27.481Z,65.41
2018-02-15T09:05:27.492Z,65.12
2018-02-15T09:06:27.795Z,65.12
2018-02-15T09:07:27.510Z,65.41
2018-02-15T09:08:27.814Z,65.31
2018-02-15T09:09:27.530Z,65.03
2018-02-15T09:10:27.557Z,64.84
2018-02-15T09:11:27.837Z,65.12
2018-02-15T09:12:27.570Z,65.69
2018-02-15T09:13:27.570Z,65.69
2018-02-15T09:14:27.868Z,65.12
2018-02-15T09:15:27.587Z,65.31
2018-02-15T09:16:27.602Z,64.74
2018-02-15T09:17:27.606Z,64.46
2018-02-15T09:18:27.901Z,64.55
2018-02-15T09:19:27.625Z,64.87
2018-02-15T09:20:27.636Z,65.03
2018-02-15T09:21:27.645Z,64.97
2018-02-15T09:22:27.941Z,64.68
2018-02-15T09:23:27.956Z,65.06
2018-02-15T09:24:27.961Z,64.78
2018-02-15T09:25:27.972Z,65.25
2018-02-15T09:26:27.702Z,64.2
2018-02-15T09:27:27.991Z,65.06
2018-02-15T09:28:27.713Z,64.78
2018-02-15T09:29:27.772Z,64.11
2018-02-15T09:30:27.734Z,63.64
2018-02-15T09:31:28.026Z,64.2
2018-02-15T09:32:28.039Z,64.2
2018-02-15T09:33:27.762Z,64.2
2018-02-15T09:34:28.110Z,63.82
2018-02-15T09:35:28.076Z,63.64
2018-02-15T09:36:27.790Z,63.92
2018-02-15T09:37:28.088Z,63.73
2018-02-15T09:38:28.099Z,63.54
2018-02-15T09:39:27.819Z,63.82
2018-02-15T09:40:28.134Z,63.64
2018-02-15T09:41:27.840Z,63.26
2018-02-15T09:42:28.143Z,63.26
2018-02-15T09:43:28.143Z,63.17
2018-02-15T09:44:27.870Z,63.35
2018-02-15T09:45:27.882Z,62.4
2018-02-15T09:46:27.888Z,62.5
2018-02-15T09:47:27.898Z,62.69
2018-02-15T09:48:28.200Z,62.78
2018-02-15T09:49:27.969Z,62.5
2018-02-15T09:50:28.216Z,62.5
2018-02-15T09:51:27.941Z,62.4
2018-02-15T09:52:28.271Z,62.4
2018-02-15T09:53:27.958Z,62.21
2018-02-15T09:54:28.343Z,62.4
2018-02-15T09:55:28.271Z,62.4
2018-02-15T09:56:27.988Z,62.31
2018-02-15T09:57:27.996Z,62.4
2018-02-15T09:58:28.009Z,62.31
2018-02-15T09:59:28.360Z,62.21
2018-02-15T10:00:28.028Z,62.31
2018-02-15T10:01:28.038Z,62.4
2018-02-15T10:02:28.047Z,62.4
2018-02-15T10:03:28.057Z,62.31
2018-02-15T10:04:28.066Z,62.31
2018-02-15T10:05:28.078Z,62.02
2018-02-15T10:06:28.088Z,62.24
2018-02-15T10:07:28.097Z,61.55
2018-02-15T10:08:28.110Z,61.17
2018-02-15T10:09:28.415Z,61.74
2018-02-15T10:10:28.177Z,61.3
2018-02-15T10:11:28.136Z,61.17
2018-02-15T10:12:28.148Z,60.92
2018-02-15T10:13:28.158Z,60.53
2018-02-15T10:14:28.473Z,60.53
2018-02-15T10:15:28.181Z,60.41
2018-02-15T10:16:28.491Z,60.63
2018-02-15T10:17:28.489Z,60.44
2018-02-15T10:18:28.496Z,60.16
2018-02-15T10:19:28.218Z,60.63
2018-02-15T10:20:28.229Z,60.73
2018-02-15T10:21:28.240Z,60.35
2018-02-15T10:22:28.563Z,60.73
2018-02-15T10:23:28.258Z,60.73
2018-02-15T10:24:28.270Z,60.63
2018-02-15T10:25:28.332Z,60.82
2018-02-15T10:26:28.290Z,60.73
2018-02-15T10:27:28.302Z,60.82
2018-02-15T10:28:28.314Z,61.01
2018-02-15T10:29:28.321Z,60.92
2018-02-15T10:30:28.332Z,60.92
2018-02-15T10:31:28.637Z,60.92
2018-02-15T10:32:28.353Z,60.63
2018-02-15T10:33:28.363Z,60.92
2018-02-15T10:34:28.664Z,60.92
2018-02-15T10:35:28.720Z,60.92
2018-02-15T10:36:28.685Z,60.73
2018-02-15T10:37:28.405Z,60.73
2018-02-15T10:38:28.428Z,60.73
2018-02-15T10:39:28.714Z,60.92
2018-02-15T10:40:28.487Z,60.92
2018-02-15T10:41:28.736Z,60.63
2018-02-15T10:42:28.458Z,60.63
2018-02-15T10:43:28.765Z,60.63
2018-02-15T10:44:28.794Z,60.44
2018-02-15T10:45:28.829Z,60.35
2018-02-15T10:46:28.785Z,60.63
2018-02-15T10:47:28.509Z,59.97
2018-02-15T10:48:28.517Z,60.35
2018-02-15T10:49:28.828Z,60.35
2018-02-15T10:50:28.540Z,60.57
2018-02-15T10:51:28.838Z,60.44
2018-02-15T10:52:28.561Z,60.57
2018-02-15T10:53:28.859Z,60.19
2018-02-15T10:54:28.870Z,60
2018-02-15T10:55:28.878Z,59.91
2018-02-15T10:56:28.633Z,59.81
2018-02-15T10:57:28.900Z,59.71
2018-02-15T10:58:28.625Z,58.76
2018-02-15T10:59:28.918Z,58.76
2018-02-15T11:00:28.932Z,58.58
2018-02-15T11:01:28.658Z,58.76
2018-02-15T11:02:28.671Z,59.24
2018-02-15T11:03:28.679Z,58.76
2018-02-15T11:04:28.976Z,58.86
2018-02-15T11:05:28.698Z,58.58
2018-02-15T11:06:28.998Z,58.86
2018-02-15T11:07:28.720Z,58.58
2018-02-15T11:08:28.732Z,58.58
2018-02-15T11:09:29.034Z,58.86
2018-02-15T11:10:29.040Z,58.95
2018-02-15T11:11:28.764Z,58.95
2018-02-15T11:12:28.773Z,58.67
2018-02-15T11:13:28.785Z,58.86
2018-02-15T11:14:28.796Z,58.95
2018-02-15T11:15:28.806Z,58.95
2018-02-15T11:16:29.104Z,58.76
2018-02-15T11:17:28.827Z,58.58
2018-02-15T11:18:28.838Z,58.76
2018-02-15T11:19:28.850Z,58.58
2018-02-15T11:20:28.862Z,58.58
2018-02-15T11:21:28.910Z,58.76
2018-02-15T11:22:28.884Z,58.48
2018-02-15T11:23:29.185Z,58.76
2018-02-15T11:24:28.905Z,58.39
2018-02-15T11:25:28.968Z,58.39
2018-02-15T11:26:28.931Z,58
2018-02-15T11:27:28.936Z,58.1
2018-02-15T11:28:29.234Z,58.2
2018-02-15T11:29:29.246Z,58.29
2018-02-15T11:30:29.258Z,57.72
2018-02-15T11:31:28.982Z,57.53
2018-02-15T11:32:29.321Z,57.53
2018-02-15T11:33:29.290Z,57.53
2018-02-15T11:34:29.012Z,57.62
2018-02-15T11:35:29.024Z,57.53
2018-02-15T11:36:29.328Z,57.56
2018-02-15T11:37:29.336Z,57.37
2018-02-15T11:38:29.057Z,57.65
2018-02-15T11:39:29.405Z,57.56
2018-02-15T11:40:29.379Z,57.46
2018-02-15T11:41:29.091Z,57.37
2018-02-15T11:42:29.106Z,57.28
2018-02-15T11:43:29.118Z,56.89
2018-02-15T11:44:29.413Z,56.99
2018-02-15T11:45:29.136Z,57.37
2018-02-15T11:46:29.448Z,57.37
2018-02-15T11:47:29.461Z,56.99
2018-02-15T11:48:29.473Z,56.8
2018-02-15T11:49:29.501Z,57.28
2018-02-15T11:50:29.190Z,56.89
2018-02-15T11:51:29.207Z,56.89
2018-02-15T11:52:29.509Z,57.28
2018-02-15T11:53:29.511Z,56.89
2018-02-15T11:54:29.530Z,57.09
2018-02-15T11:55:29.535Z,56.7
2018-02-15T11:56:29.307Z,56.51
2018-02-15T11:57:29.558Z,56.8
2018-02-15T11:58:29.572Z,56.8
2018-02-15T11:59:29.591Z,56.32
2018-02-15T12:00:29.308Z,55.57
2018-02-15T12:01:29.614Z,55.66
2018-02-15T12:02:29.615Z,55.57
2018-02-15T12:03:29.626Z,55.94
2018-02-15T12:04:29.350Z,56.23
2018-02-15T12:05:29.693Z,56.42
2018-02-15T12:06:29.664Z,56.23
2018-02-15T12:07:29.672Z,56.23
2018-02-15T12:08:29.396Z,56.04
2018-02-15T12:09:29.697Z,56.23
2018-02-15T12:10:29.420Z,56.32
2018-02-15T12:11:29.736Z,56.13
2018-02-15T12:12:29.728Z,55.47
2018-02-15T12:13:29.453Z,55.09
2018-02-15T12:14:29.756Z,54.8
2018-02-15T12:15:29.478Z,54.52
2018-02-15T12:16:29.539Z,54.71
2018-02-15T12:17:29.499Z,54.71
2018-02-15T12:18:29.524Z,54.33
2018-02-15T12:19:29.815Z,55.37
2018-02-15T12:20:29.858Z,55.28
2018-02-15T12:21:29.834Z,55.47
2018-02-15T12:22:29.850Z,55.66
2018-02-15T12:23:29.571Z,55.76
2018-02-15T12:24:29.582Z,55.28
2018-02-15T12:25:29.884Z,55.11
2018-02-15T12:26:29.604Z,55.18
2018-02-15T12:27:29.615Z,55.3
2018-02-15T12:28:29.928Z,55.18
2018-02-15T12:29:29.927Z,55.18
2018-02-15T12:30:29.650Z,55.11
2018-02-15T12:31:29.714Z,55.5
2018-02-15T12:32:29.960Z,54.83
2018-02-15T12:33:29.687Z,54.74
2018-02-15T12:34:29.985Z,54.74
2018-02-15T12:35:29.711Z,54.43
2018-02-15T12:36:30.007Z,54.64
2018-02-15T12:37:30.022Z,54.74
2018-02-15T12:38:30.036Z,54.14
2018-02-15T12:39:29.759Z,54.07
2018-02-15T12:40:30.056Z,54.52
2018-02-15T12:41:30.067Z,55.18
2018-02-15T12:42:30.080Z,54.61
2018-02-15T12:43:29.810Z,55.11
2018-02-15T12:44:29.816Z,54.83
2018-02-15T12:45:30.114Z,55.11
2018-02-15T12:46:30.126Z,54.83
2018-02-15T12:47:29.850Z,55.11
2018-02-15T12:48:29.864Z,54.74
2018-02-15T12:49:30.161Z,54.36
2018-02-15T12:50:30.173Z,54.64
2018-02-15T12:51:29.899Z,54.55
2018-02-15T12:52:29.923Z,54.55
2018-02-15T12:53:30.212Z,54.64
2018-02-15T12:54:29.934Z,55.11
2018-02-15T12:55:29.948Z,54.74